Time;durP1;ratioP1;P1;durP2;ratioP2;P2;SDS_P1;SDS_P2;PMS_P1;PMS_P2;Temp;Humidity;BMP_temperature;BMP_pressure;BME280_temperature;BME280_humidity;BME280_pressure;Samples;Min_cycle;Max_cycle;Signal;HPM_P1;HPM_P2
2023/04/26 05:10:12;;;;;;;10.97;4.20;;;3.80;99.90;;;;;;6150405;22;1914636;-83
2023/04/26 05:12:38;;;;;;;9.90;4.28;;;3.90;99.90;;;;;;6185790;23;20032;-83
2023/04/26 05:15:04;;;;;;;12.25;5.00;;;4.00;99.90;;;;;;6160234;23;20021;-86
2023/04/26 05:17:31;;;;;;;9.73;4.55;;;4.10;99.90;;;;;;6164331;23;20108;-88
2023/04/26 05:19:57;;;;;;;10.07;4.60;;;4.20;99.90;;;;;;6189327;23;20285;-88
2023/04/26 05:22:22;;;;;;;15.60;4.95;;;4.40;99.90;;;;;;6161941;23;20021;-85
2023/04/26 05:24:48;;;;;;;8.57;4.40;;;4.90;99.90;;;;;;6187078;23;20027;-83
2023/04/26 05:27:14;;;;;;;9.65;4.57;;;4.60;99.90;;;;;;6186310;23;20008;-80
2023/04/26 05:29:40;;;;;;;14.07;5.05;;;4.90;99.90;;;;;;6182897;23;20070;-83
2023/04/26 05:32:06;;;;;;;8.02;4.50;;;4.70;99.90;;;;;;6186039;23;20480;-81
2023/04/26 05:34:31;;;;;;;12.20;4.55;;;4.80;99.90;;;;;;6185726;23;20040;-82
2023/04/26 05:36:57;;;;;;;7.72;3.95;;;5.10;99.90;;;;;;6212826;23;20335;-82
2023/04/26 05:39:26;;;;;;;10.85;4.30;;;5.20;99.90;;;;;;6186654;23;20013;-82
2023/04/26 05:41:51;;;;;;;12.65;4.63;;;5.20;99.90;;;;;;6161452;23;20039;-82
2023/04/26 05:44:17;;;;;;;9.07;4.47;;;5.40;99.90;;;;;;6185795;23;20035;-82
2023/04/26 05:46:42;;;;;;;9.00;4.30;;;6.30;99.90;;;;;;6186506;23;20012;-83
2023/04/26 05:49:08;;;;;;;10.95;4.25;;;7.50;99.90;;;;;;6186356;23;20012;-82
2023/04/26 05:51:34;;;;;;;10.50;3.95;;;8.70;99.90;;;;;;6213486;23;20015;-82
2023/04/26 05:53:59;;;;;;;9.68;3.78;;;9.70;99.90;;;;;;6186828;23;20150;-81
2023/04/26 05:56:25;;;;;;;8.63;3.38;;;10.60;99.90;;;;;;6161926;23;20444;-81
2023/04/26 05:58:52;;;;;;;8.18;3.00;;;11.60;99.90;;;;;;6186452;23;20862;-82
2023/04/26 06:01:18;;;;;;;6.30;2.67;;;12.30;99.90;;;;;;6162173;23;20315;-83
2023/04/26 06:03:45;;;;;;;9.30;2.97;;;12.80;99.90;;;;;;6161549;23;20013;-82
2023/04/26 06:06:11;;;;;;;6.97;2.75;;;13.40;99.90;;;;;;6186706;23;20107;-82
2023/04/26 06:08:37;;;;;;;7.47;2.67;;;12.90;99.90;;;;;;6187026;23;20443;-83
2023/04/26 06:11:03;;;;;;;7.85;2.75;;;11.90;99.90;;;;;;6160668;23;20004;-86
2023/04/26 06:13:28;;;;;;;7.43;2.70;;;11.30;99.90;;;;;;6184060;23;20013;-86
2023/04/26 06:15:54;;;;;;;8.00;2.72;;;10.70;99.90;;;;;;6184606;23;20015;-85
2023/04/26 06:18:20;;;;;;;6.18;2.58;;;10.60;99.90;;;;;;6160467;23;20450;-85
2023/04/26 06:20:46;;;;;;;9.63;2.78;;;9.90;99.90;;;;;;6184649;23;20048;-85
2023/04/26 06:23:11;;;;;;;8.98;3.28;;;10.00;99.90;;;;;;6185127;23;20013;-85
2023/04/26 06:25:39;;;;;;;7.85;2.75;;;9.20;99.90;;;;;;6212845;23;20380;-85
2023/04/26 06:28:05;;;;;;;7.35;2.88;;;9.00;99.90;;;;;;6185239;23;20511;-85
2023/04/26 06:30:30;;;;;;;7.85;2.80;;;8.80;99.90;;;;;;6186287;23;20051;-85
2023/04/26 06:32:58;;;;;;;7.93;3.00;;;8.80;99.90;;;;;;6186460;23;20062;-85
2023/04/26 06:35:24;;;;;;;7.38;2.92;;;8.70;99.90;;;;;;6161076;23;20331;-85
2023/04/26 06:37:50;;;;;;;6.82;2.80;;;8.60;99.90;;;;;;6186098;23;20012;-85
2023/04/26 06:40:16;;;;;;;7.90;2.72;;;8.60;99.90;;;;;;6185973;23;20091;-85
2023/04/26 06:42:42;;;;;;;6.15;2.80;;;8.70;99.90;;;;;;6160422;23;20027;-84
2023/04/26 06:45:08;;;;;;;6.10;2.70;;;8.90;99.90;;;;;;6160976;23;20067;-85
2023/04/26 06:47:34;;;;;;;7.88;2.70;;;9.40;99.90;;;;;;6161302;23;20048;-85
2023/04/26 06:50:00;;;;;;;12.77;2.63;;;9.50;99.90;;;;;;6212568;23;20024;-85
2023/04/26 06:52:25;;;;;;;11.82;2.60;;;9.70;99.90;;;;;;6161216;23;20054;-86
2023/04/26 06:54:51;;;;;;;5.65;2.25;;;10.00;99.90;;;;;;6161352;23;20088;-85
2023/04/26 06:57:17;;;;;;;6.95;2.35;;;10.20;99.90;;;;;;6160482;23;20013;-86
2023/04/26 06:59:43;;;;;;;6.72;2.30;;;10.10;99.90;;;;;;6186398;23;20044;-86
2023/04/26 07:02:08;;;;;;;6.30;2.30;;;10.10;99.90;;;;;;6212456;23;20059;-85
2023/04/26 07:04:35;;;;;;;6.95;2.22;;;10.10;99.90;;;;;;6186291;23;20012;-85
2023/04/26 07:07:00;;;;;;;7.88;2.67;;;10.20;99.90;;;;;;6212866;23;20054;-86
2023/04/26 07:09:29;;;;;;;7.10;2.33;;;10.00;99.90;;;;;;6186051;23;20012;-85
2023/04/26 07:11:55;;;;;;;8.98;2.90;;;10.00;99.90;;;;;;6184535;23;20032;-85
2023/04/26 07:14:20;;;;;;;11.88;3.72;;;9.70;99.90;;;;;;6161094;23;20435;-85
2023/04/26 07:16:46;;;;;;;6.43;2.33;;;10.00;99.90;;;;;;6160705;23;20397;-85
2023/04/26 07:19:11;;;;;;;9.00;2.85;;;9.60;99.90;;;;;;6161112;23;20349;-85
2023/04/26 07:21:37;;;;;;;16.60;5.63;;;9.60;99.90;;;;;;6161394;23;20024;-85
2023/04/26 07:24:03;;;;;;;14.52;6.43;;;9.70;99.90;;;;;;6185588;23;20070;-86
2023/04/26 07:26:29;;;;;;;29.55;15.30;;;9.80;99.90;;;;;;6185475;23;20104;-85
2023/04/26 07:28:55;;;;;;;12.68;6.32;;;9.80;99.90;;;;;;6160947;23;20012;-86
2023/04/26 07:31:24;;;;;;;11.07;3.65;;;10.20;99.90;;;;;;6186665;23;20352;-85
2023/04/26 07:33:49;;;;;;;10.07;3.17;;;10.40;99.90;;;;;;6185334;23;20017;-84
2023/04/26 07:36:15;;;;;;;20.00;10.30;;;11.10;99.90;;;;;;6186069;23;20035;-86
2023/04/26 07:38:41;;;;;;;7.95;2.85;;;11.00;99.90;;;;;;6160903;23;20083;-85
2023/04/26 07:41:06;;;;;;;8.00;2.55;;;11.90;99.90;;;;;;6160146;23;20439;-86
2023/04/26 07:43:32;;;;;;;9.10;2.85;;;12.70;99.90;;;;;;6212517;23;20017;-85
2023/04/26 07:46:01;;;;;;;8.32;2.45;;;13.70;99.90;;;;;;6160630;23;20031;-86
2023/04/26 07:48:27;;;;;;;6.97;2.70;;;14.70;99.90;;;;;;6160927;23;20443;-85
2023/04/26 07:50:52;;;;;;;7.30;2.47;;;14.60;99.90;;;;;;6185465;23;20013;-86
2023/04/26 07:53:18;;;;;;;10.63;2.60;;;14.90;99.90;;;;;;6185422;23;20451;-87
2023/04/26 07:55:45;;;;;;;9.20;3.03;;;14.40;99.90;;;;;;6185689;23;20009;-86
2023/04/26 07:58:13;;;;;;;6.85;2.33;;;13.60;99.70;;;;;;6160790;23;20013;-86
2023/04/26 08:00:39;;;;;;;6.68;2.78;;;13.00;99.90;;;;;;6185963;23;20009;-86
2023/04/26 08:03:05;;;;;;;9.32;3.13;;;13.00;99.90;;;;;;6160774;23;20335;-86
2023/04/26 08:05:31;;;;;;;7.07;2.63;;;12.50;99.90;;;;;;6185656;23;20017;-85
2023/04/26 08:07:56;;;;;;;7.90;2.50;;;12.70;99.90;;;;;;6161074;23;20012;-86
2023/04/26 08:10:22;;;;;;;10.88;3.00;;;12.90;99.90;;;;;;6185323;23;20375;-86
2023/04/26 08:12:49;;;;;;;12.63;3.33;;;13.10;99.90;;;;;;6186055;23;20021;-85
2023/04/26 08:15:15;;;;;;;54.15;28.67;;;13.30;99.90;;;;;;6161025;23;20013;-86
2023/04/26 08:17:40;;;;;;;15.88;5.00;;;13.70;99.90;;;;;;6185719;23;20102;-86
2023/04/26 08:20:08;;;;;;;10.38;3.10;;;13.70;99.90;;;;;;6160668;23;20012;-86
2023/04/26 08:22:34;;;;;;;8.82;2.40;;;13.90;99.90;;;;;;6185410;23;20009;-85
2023/04/26 08:25:00;;;;;;;11.00;4.35;;;14.70;99.90;;;;;;6185911;23;20016;-85
2023/04/26 08:27:27;;;;;;;11.63;5.13;;;14.30;99.90;;;;;;6212779;23;20386;-86
2023/04/26 08:29:53;;;;;;;15.13;5.85;;;14.20;99.90;;;;;;6185755;23;20038;-86
2023/04/26 08:32:18;;;;;;;16.30;5.47;;;14.20;99.20;;;;;;6185549;23;20095;-85
2023/04/26 08:34:44;;;;;;;11.00;3.90;;;14.40;99.90;;;;;;6160642;23;20016;-85
2023/04/26 08:37:10;;;;;;;7.65;2.30;;;14.10;97.80;;;;;;6185291;23;20048;-85
2023/04/26 08:39:36;;;;;;;8.35;2.45;;;13.60;97.80;;;;;;6160570;23;20008;-86
2023/04/26 08:42:12;;;;;;;7.68;2.80;;;13.10;99.00;;;;;;6186720;23;20437;-86
2023/04/26 08:44:41;;;;;;;22.40;11.10;;;12.40;99.90;;;;;;6162459;23;20017;-85
2023/04/26 08:47:13;;;;;;;6.65;2.47;;;11.90;99.90;;;;;;6162463;23;20023;-85
2023/04/26 08:49:52;;;;;;;6.05;2.55;;;11.50;99.90;;;;;;6187622;23;20016;-85
2023/04/26 08:52:22;;;;;;;8.40;2.58;;;11.00;99.90;;;;;;6162492;23;20016;-85
2023/04/26 08:54:50;;;;;;;10.82;2.40;;;10.70;99.90;;;;;;6162445;23;20057;-85
2023/04/26 08:57:17;;;;;;;13.52;2.70;;;10.50;99.90;;;;;;6162175;23;20019;-85
2023/04/26 08:59:43;;;;;;;9.52;2.45;;;10.40;99.90;;;;;;6162407;23;20008;-85
2023/04/26 09:02:12;;;;;;;8.65;3.25;;;10.30;99.90;;;;;;6162498;23;20033;-85
2023/04/26 09:04:38;;;;;;;17.58;8.38;;;10.40;99.90;;;;;;6162231;23;20009;-85
2023/04/26 09:07:06;;;;;;;16.15;5.22;;;10.60;99.90;;;;;;6161959;23;20303;-85
2023/04/26 09:09:40;;;;;;;11.77;3.70;;;10.70;99.90;;;;;;6187639;23;20099;-85
2023/04/26 09:12:06;;;;;;;10.55;4.10;;;10.70;99.90;;;;;;6187226;23;20058;-85
2023/04/26 09:14:32;;;;;;;23.52;12.45;;;10.70;99.90;;;;;;6162145;23;20025;-85
2023/04/26 09:16:58;;;;;;;11.60;4.18;;;10.70;99.90;;;;;;6214046;23;20412;-85
2023/04/26 09:19:43;;;;;;;7.85;2.67;;;10.60;99.90;;;;;;6186887;23;20406;-85
2023/04/26 09:22:09;;;;;;;19.85;12.70;;;10.60;99.90;;;;;;6161617;23;20013;-86
2023/04/26 09:24:53;;;;;;;11.23;4.35;;;10.50;99.90;;;;;;6213826;23;20393;-85
2023/04/26 09:27:20;;;;;;;10.80;4.32;;;10.20;99.90;;;;;;6162329;23;20008;-85
2023/04/26 09:30:10;;;;;;;23.02;9.13;;;10.10;99.90;;;;;;6187105;23;20016;-85
2023/04/26 09:32:47;;;;;;;11.85;4.38;;;10.00;99.90;;;;;;6199364;23;20017;-85
2023/04/26 09:35:30;;;;;;;10.35;3.50;;;9.80;99.90;;;;;;6216955;23;20008;-85
2023/04/26 09:38:19;;;;;;;10.02;3.30;;;9.60;99.90;;;;;;6189902;23;20009;-85
2023/04/26 09:40:47;;;;;;;10.63;3.45;;;9.70;99.90;;;;;;6149906;23;20024;-85
2023/04/26 09:43:14;;;;;;;12.57;3.08;;;9.50;99.90;;;;;;6164466;23;20031;-83
2023/04/26 09:45:50;;;;;;;12.60;3.20;;;9.40;99.90;;;;;;6190136;23;20051;-84
2023/04/26 09:48:29;;;;;;;14.77;3.40;;;9.30;99.90;;;;;;6165075;23;20047;-84
2023/04/26 09:51:09;;;;;;;10.30;3.35;;;9.20;99.90;;;;;;6215823;23;20037;-85
2023/04/26 09:53:37;;;;;;;10.65;3.47;;;9.20;99.90;;;;;;6190235;23;20023;-84
2023/04/26 09:56:17;;;;;;;12.50;3.78;;;9.20;99.90;;;;;;6190537;23;20335;-85
2023/04/26 09:58:46;;;;;;;10.18;3.17;;;9.20;99.90;;;;;;6190223;23;20032;-85
2023/04/26 10:01:13;;;;;;;10.18;3.35;;;9.30;99.90;;;;;;6165953;23;20017;-85
2023/04/26 10:03:41;;;;;;;9.07;2.92;;;9.50;99.90;;;;;;6189619;23;20013;-84
2023/04/26 10:06:07;;;;;;;20.58;7.45;;;9.70;99.90;;;;;;6188909;23;20013;-85
2023/04/26 10:08:33;;;;;;;11.98;3.45;;;9.90;99.90;;;;;;6164074;23;20020;-84
2023/04/26 10:11:03;;;;;;;7.85;2.55;;;10.00;99.90;;;;;;6188988;23;20021;-84
2023/04/26 10:13:33;;;;;;;8.18;2.90;;;10.00;99.90;;;;;;6164089;23;20021;-85
2023/04/26 10:16:03;;;;;;;10.23;2.72;;;10.20;99.90;;;;;;6164153;23;20016;-85
2023/04/26 10:18:32;;;;;;;12.27;3.42;;;10.40;99.90;;;;;;6164050;23;20012;-85
2023/04/26 10:21:11;;;;;;;9.30;4.15;;;10.50;99.90;;;;;;6215255;23;20020;-83
2023/04/26 10:23:38;;;;;;;8.75;3.30;;;10.80;99.90;;;;;;6189283;23;20139;-84
2023/04/26 10:26:04;;;;;;;8.68;2.42;;;10.90;99.90;;;;;;6189415;23;20051;-86
2023/04/26 10:28:39;;;;;;;9.23;3.08;;;11.00;99.90;;;;;;6163851;23;20343;-84
2023/04/26 10:31:06;;;;;;;7.93;2.90;;;11.10;99.90;;;;;;6163475;23;20104;-84
2023/04/26 10:33:32;;;;;;;12.50;2.90;;;11.30;99.90;;;;;;6163956;23;20061;-85
2023/04/26 10:36:12;;;;;;;12.38;3.55;;;11.30;99.90;;;;;;6188917;23;20013;-85
2023/04/26 10:38:40;;;;;;;8.98;3.00;;;11.60;99.90;;;;;;6188307;23;20011;-84
2023/04/26 10:41:31;;;;;;;11.02;3.08;;;11.70;99.90;;;;;;6188261;23;20016;-84
2023/04/26 10:44:00;;;;;;;11.60;3.30;;;11.60;99.90;;;;;;6163534;23;20092;-84
2023/04/26 10:46:39;;;;;;;10.55;3.42;;;11.50;99.90;;;;;;6188121;23;20375;-84
2023/04/26 10:49:16;;;;;;;12.05;3.38;;;11.40;99.90;;;;;;6187845;23;20009;-84
2023/04/26 10:52:11;;;;;;;9.63;2.92;;;11.00;99.90;;;;;;6188176;23;20015;-84
2023/04/26 10:54:44;;;;;;;7.10;2.50;;;10.80;99.90;;;;;;6214959;23;20032;-83
2023/04/26 10:57:10;;;;;;;11.63;2.80;;;10.40;99.90;;;;;;6187980;23;20020;-84
2023/04/26 10:59:35;;;;;;;6.43;2.30;;;10.10;99.90;;;;;;6214520;23;20028;-84
2023/04/26 11:02:01;;;;;;;9.85;3.10;;;9.80;99.90;;;;;;6215650;23;20048;-84
2023/04/26 11:04:50;;;;;;;8.95;2.95;;;9.70;99.90;;;;;;6162851;23;20068;-84
2023/04/26 11:07:35;;;;;;;8.10;2.75;;;9.70;99.90;;;;;;6215371;23;20047;-84
2023/04/26 11:10:01;;;;;;;6.10;2.30;;;9.70;99.90;;;;;;6188241;23;20020;-85
2023/04/26 11:12:32;;;;;;;7.63;2.88;;;10.20;99.90;;;;;;6189064;23;20047;-84
2023/04/26 11:14:59;;;;;;;6.30;2.50;;;10.00;99.90;;;;;;6188365;23;20087;-85
2023/04/26 11:17:25;;;;;;;7.20;2.53;;;10.10;99.90;;;;;;6188452;23;20079;-84
2023/04/26 11:19:51;;;;;;;8.43;2.97;;;10.10;99.90;;;;;;6215264;23;20013;-84
2023/04/26 11:22:22;;;;;;;8.73;3.20;;;10.30;99.90;;;;;;6164525;23;20062;-84
2023/04/26 11:24:48;;;;;;;9.02;3.50;;;10.50;99.90;;;;;;6188599;23;20019;-84
2023/04/26 11:27:14;;;;;;;8.52;3.03;;;10.60;99.90;;;;;;6188979;23;20012;-84
2023/04/26 11:29:40;;;;;;;8.60;2.53;;;10.60;99.90;;;;;;6188091;23;20066;-83
2023/04/26 11:32:06;;;;;;;10.77;2.22;;;10.30;99.90;;;;;;6214480;23;20011;-83
2023/04/26 11:34:35;;;;;;;7.40;2.03;;;9.90;99.90;;;;;;6188414;23;20158;-84
2023/04/26 11:37:03;;;;;;;7.70;2.33;;;9.60;99.90;;;;;;6163110;23;20008;-83
2023/04/26 11:39:33;;;;;;;8.93;2.35;;;9.40;99.90;;;;;;6188485;23;20201;-83
2023/04/26 11:42:09;;;;;;;8.32;2.45;;;9.30;99.90;;;;;;6215383;23;20015;-85
2023/04/26 11:44:36;;;;;;;5.97;2.22;;;9.20;99.90;;;;;;6163393;23;20017;-84
2023/04/26 11:47:03;;;;;;;8.00;2.35;;;9.30;99.90;;;;;;6187538;23;20019;-83
2023/04/26 11:49:34;;;;;;;7.78;2.40;;;9.30;99.90;;;;;;6188112;23;20120;-84
2023/04/26 11:52:01;;;;;;;5.78;2.03;;;9.30;99.90;;;;;;6163164;23;20091;-83
2023/04/26 11:54:31;;;;;;;10.57;2.83;;;9.40;99.90;;;;;;6162540;23;20012;-84
2023/04/26 11:56:57;;;;;;;8.98;2.53;;;9.50;99.90;;;;;;6214531;23;20040;-84
2023/04/26 11:59:28;;;;;;;8.40;3.40;;;9.70;99.90;;;;;;6214446;23;20005;-85
2023/04/26 12:01:56;;;;;;;26.77;10.48;;;9.90;99.90;;;;;;6161619;23;20096;-83
2023/04/26 12:04:29;;;;;;;6.47;2.55;;;10.00;99.90;;;;;;6161187;23;20014;-84
2023/04/26 12:06:55;;;;;;;7.00;3.10;;;10.20;99.90;;;;;;6185557;23;20272;-85
2023/04/26 12:09:28;;;;;;;7.30;2.85;;;10.40;99.90;;;;;;6185360;23;20449;-84
2023/04/26 12:11:58;;;;;;;8.57;2.72;;;10.80;99.90;;;;;;6160713;23;20016;-85
2023/04/26 12:14:33;;;;;;;6.82;2.28;;;10.90;99.90;;;;;;6185039;23;20019;-84
2023/04/26 12:17:02;;;;;;;7.20;2.50;;;11.10;99.90;;;;;;6161649;23;20084;-84
2023/04/26 12:19:32;;;;;;;78.57;32.45;;;11.10;99.90;;;;;;6187076;23;20416;-85
2023/04/26 12:21:58;;;;;;;9.55;3.85;;;11.20;99.90;;;;;;6214174;23;20074;-85
2023/04/26 12:24:25;;;;;;;7.72;2.38;;;11.30;99.90;;;;;;6186924;23;20008;-85
2023/04/26 12:26:51;;;;;;;8.77;3.30;;;11.20;99.90;;;;;;6162404;23;20015;-84
2023/04/26 12:29:17;;;;;;;5.90;2.65;;;11.40;99.90;;;;;;6213354;23;20371;-85
2023/04/26 12:31:43;;;;;;;6.97;3.10;;;11.20;99.90;;;;;;6186504;23;20040;-85
2023/04/26 12:34:08;;;;;;;8.98;3.33;;;11.10;99.90;;;;;;6162692;23;20024;-81
2023/04/26 12:36:34;;;;;;;7.20;3.65;;;11.10;99.90;;;;;;6162236;23;20004;-85
2023/04/26 12:39:02;;;;;;;4.85;2.03;;;11.20;99.90;;;;;;6214441;23;20066;-86
2023/04/26 12:41:28;;;;;;;4.97;1.90;;;11.30;99.90;;;;;;6162897;23;20008;-84
2023/04/26 12:43:53;;;;;;;8.77;2.42;;;11.40;99.80;;;;;;6187012;23;20096;-86
2023/04/26 12:46:19;;;;;;;7.68;2.17;;;11.40;99.50;;;;;;6162516;23;20519;-86
2023/04/26 12:48:45;;;;;;;11.93;5.05;;;11.50;99.90;;;;;;6187259;23;20066;-84
2023/04/26 12:51:11;;;;;;;8.57;3.03;;;11.60;99.30;;;;;;6187066;23;20016;-84
2023/04/26 12:53:36;;;;;;;6.93;2.05;;;11.70;99.90;;;;;;6213904;23;20012;-84
2023/04/26 12:56:03;;;;;;;10.40;4.57;;;11.40;98.00;;;;;;6187109;23;20074;-84
2023/04/26 12:58:29;;;;;;;9.02;2.60;;;11.30;99.90;;;;;;6161311;23;20064;-84
2023/04/26 13:00:55;;;;;;;7.28;2.63;;;11.20;99.90;;;;;;6187189;23;20013;-84
2023/04/26 13:03:20;;;;;;;8.98;2.88;;;11.10;99.90;;;;;;6161878;23;20024;-85
2023/04/26 13:05:46;;;;;;;9.00;3.50;;;10.90;99.90;;;;;;6161890;23;20012;-84
2023/04/26 13:08:11;;;;;;;10.15;3.65;;;10.70;99.90;;;;;;6187244;23;20016;-84
2023/04/26 13:10:37;;;;;;;12.50;5.90;;;11.00;99.90;;;;;;6186609;23;20024;-84
2023/04/26 13:13:03;;;;;;;8.93;4.50;;;10.30;99.90;;;;;;6161317;23;20020;-81
2023/04/26 13:15:28;;;;;;;8.65;3.58;;;10.20;99.90;;;;;;6161852;23;20013;-81
2023/04/26 13:17:54;;;;;;;7.38;3.10;;;10.10;99.90;;;;;;6213000;23;20056;-82
2023/04/26 13:20:20;;;;;;;6.70;3.10;;;10.00;99.90;;;;;;6184096;23;20454;-79
2023/04/26 13:22:46;;;;;;;17.58;7.38;;;10.00;99.90;;;;;;6160984;23;20013;-78
2023/04/26 13:25:14;;;;;;;12.00;4.72;;;9.90;99.90;;;;;;6161643;23;20024;-82
2023/04/26 13:27:40;;;;;;;10.57;3.60;;;9.90;99.90;;;;;;6186101;23;20017;-81
2023/04/26 13:30:06;;;;;;;8.55;3.28;;;9.80;99.90;;;;;;6186500;23;20350;-81
2023/04/26 13:32:31;;;;;;;8.27;3.00;;;9.80;99.90;;;;;;6212857;23;20442;-84
2023/04/26 13:34:57;;;;;;;12.00;4.80;;;9.80;99.90;;;;;;6185964;23;20426;-83
2023/04/26 13:37:23;;;;;;;6.75;2.78;;;9.90;99.90;;;;;;6186182;23;20016;-81
2023/04/26 13:39:48;;;;;;;9.25;2.42;;;10.00;99.90;;;;;;6186209;23;20398;-82
2023/04/26 13:42:15;;;;;;;7.25;2.72;;;10.10;99.90;;;;;;6186260;23;20005;-81
2023/04/26 13:44:41;;;;;;;9.15;2.40;;;10.20;99.90;;;;;;6161332;23;20451;-82
2023/04/26 13:47:07;;;;;;;10.93;2.83;;;10.30;99.90;;;;;;6213347;23;20019;-83
2023/04/26 13:49:32;;;;;;;11.13;3.42;;;10.50;99.90;;;;;;6186333;23;20009;-84
2023/04/26 13:51:58;;;;;;;8.50;3.30;;;10.50;99.90;;;;;;6186387;23;20273;-84
2023/04/26 13:54:26;;;;;;;8.90;2.25;;;10.60;99.90;;;;;;6185914;23;20039;-84
2023/04/26 13:56:52;;;;;;;9.10;4.15;;;10.50;99.90;;;;;;6185671;23;20008;-84
2023/04/26 13:59:18;;;;;;;9.80;4.15;;;10.70;99.90;;;;;;6161035;23;20476;-83
2023/04/26 14:01:45;;;;;;;12.15;3.15;;;10.50;99.90;;;;;;6185912;23;20012;-84
2023/04/26 14:04:11;;;;;;;7.30;2.55;;;10.50;99.90;;;;;;6161169;23;20048;-83
2023/04/26 14:06:36;;;;;;;5.85;2.20;;;10.50;99.90;;;;;;6186157;23;20047;-83
2023/04/26 14:09:05;;;;;;;7.55;2.47;;;10.50;99.90;;;;;;6186289;23;20051;-82
2023/04/26 14:11:31;;;;;;;8.68;2.38;;;10.30;99.90;;;;;;6185068;23;20013;-84
2023/04/26 14:13:58;;;;;;;9.45;3.28;;;10.40;99.90;;;;;;6186040;23;20044;-83
2023/04/26 14:16:24;;;;;;;7.03;2.50;;;10.50;99.90;;;;;;6161093;23;20012;-83
2023/04/26 14:18:50;;;;;;;7.88;2.80;;;10.20;99.90;;;;;;6212683;23;20078;-82
2023/04/26 14:21:17;;;;;;;11.27;2.83;;;10.10;99.90;;;;;;6160907;23;20423;-81
2023/04/26 14:23:43;;;;;;;7.55;2.75;;;10.10;99.90;;;;;;6212622;23;20020;-81
2023/04/26 14:26:09;;;;;;;9.98;2.88;;;10.10;99.90;;;;;;6160970;23;20013;-87
2023/04/26 14:28:35;;;;;;;8.55;2.88;;;10.10;99.90;;;;;;6161740;23;20009;-85
2023/04/26 14:31:01;;;;;;;7.75;3.10;;;10.10;99.90;;;;;;6186230;23;20312;-80
2023/04/26 14:33:26;;;;;;;12.15;3.80;;;10.40;99.90;;;;;;6160426;23;20022;-81
2023/04/26 14:35:53;;;;;;;12.00;4.10;;;10.10;99.90;;;;;;6212512;23;20012;-81
2023/04/26 14:38:20;;;;;;;7.80;2.80;;;10.10;99.90;;;;;;6212484;23;20012;-81
2023/04/26 14:40:45;;;;;;;9.25;2.88;;;10.10;99.90;;;;;;6184883;23;20012;-83
2023/04/26 14:43:11;;;;;;;7.88;2.95;;;10.10;99.90;;;;;;6186110;23;20016;-83
2023/04/26 14:45:37;;;;;;;8.82;2.70;;;10.00;99.90;;;;;;6184890;23;20390;-82
2023/04/26 14:48:02;;;;;;;9.20;2.60;;;9.90;99.90;;;;;;6211938;23;20015;-83
2023/04/26 14:50:28;;;;;;;10.25;2.63;;;9.80;99.90;;;;;;6161330;23;20023;-84
2023/04/26 14:52:54;;;;;;;10.50;3.00;;;10.10;99.90;;;;;;6186431;23;20448;-86
2023/04/26 14:55:21;;;;;;;6.80;2.58;;;9.90;99.90;;;;;;6160793;23;20013;-86
2023/04/26 14:57:47;;;;;;;10.13;2.80;;;9.70;99.90;;;;;;6186382;23;20023;-85
2023/04/26 15:00:16;;;;;;;8.38;2.38;;;9.70;99.90;;;;;;6160901;23;20084;-85
2023/04/26 15:02:42;;;;;;;6.45;2.38;;;9.80;99.90;;;;;;6212915;23;20080;-83
2023/04/26 15:05:09;;;;;;;7.43;2.33;;;9.80;99.90;;;;;;6161015;23;20008;-84
2023/04/26 15:07:35;;;;;;;6.57;2.35;;;9.90;99.90;;;;;;6186119;23;20039;-84
2023/04/26 15:10:01;;;;;;;8.93;2.97;;;10.00;99.90;;;;;;6160332;23;20143;-85
2023/04/26 15:12:27;;;;;;;10.73;2.67;;;10.00;99.90;;;;;;6160977;23;20384;-84
2023/04/26 15:14:53;;;;;;;8.00;2.53;;;10.20;99.90;;;;;;6212595;23;20017;-85
2023/04/26 15:17:18;;;;;;;6.43;2.70;;;10.20;99.90;;;;;;6185399;23;20020;-86
2023/04/26 15:19:44;;;;;;;9.05;2.75;;;10.30;99.90;;;;;;6160974;23;20004;-86
2023/04/26 15:22:10;;;;;;;8.80;2.40;;;10.30;99.90;;;;;;6160798;23;20392;-82
2023/04/26 15:24:36;;;;;;;7.80;2.70;;;10.30;99.90;;;;;;6160165;23;20246;-82
2023/04/26 15:27:03;;;;;;;6.78;2.40;;;10.50;99.90;;;;;;6160853;23;20020;-82
2023/04/26 15:29:36;;;;;;;12.15;2.42;;;10.60;99.90;;;;;;6185623;23;20028;-83
2023/04/26 15:32:02;;;;;;;9.20;2.50;;;10.80;99.90;;;;;;6186166;23;20342;-85
2023/04/26 15:34:28;;;;;;;8.30;2.92;;;10.80;99.90;;;;;;6185556;23;20067;-86
2023/04/26 15:36:58;;;;;;;5.90;2.15;;;11.10;99.90;;;;;;6184989;23;20017;-87
2023/04/26 15:39:24;;;;;;;6.80;1.95;;;10.90;99.90;;;;;;6160031;23;20004;-86
2023/04/26 15:41:50;;;;;;;7.18;2.15;;;11.00;99.90;;;;;;6212782;23;20036;-86
2023/04/26 15:44:16;;;;;;;6.47;2.67;;;11.00;99.90;;;;;;6161218;23;20083;-86
2023/04/26 15:46:41;;;;;;;7.90;2.72;;;10.90;99.90;;;;;;6212636;23;20016;-86
2023/04/26 15:49:07;;;;;;;5.68;2.75;;;11.20;99.90;;;;;;6160601;23;20147;-86
2023/04/26 15:51:33;;;;;;;8.43;3.00;;;11.10;99.90;;;;;;6187193;23;20009;-86
2023/04/26 15:53:58;;;;;;;7.38;2.35;;;10.60;99.90;;;;;;6213788;23;20261;-86
2023/04/26 15:56:25;;;;;;;9.30;3.08;;;10.70;99.90;;;;;;6187848;23;20082;-86
2023/04/26 15:58:51;;;;;;;8.32;2.58;;;10.40;99.90;;;;;;6187837;23;20317;-86
2023/04/26 16:01:17;;;;;;;10.18;2.30;;;9.80;99.90;;;;;;6188245;23;20074;-86
2023/04/26 16:03:43;;;;;;;7.50;2.53;;;10.10;99.90;;;;;;6187680;23;20016;-86
2023/04/26 16:06:09;;;;;;;6.75;2.38;;;10.30;99.90;;;;;;6162959;23;20136;-86
2023/04/26 16:08:35;;;;;;;7.85;2.50;;;9.70;99.90;;;;;;6214461;23;20021;-86
2023/04/26 16:11:01;;;;;;;6.75;2.95;;;9.50;99.90;;;;;;6157709;23;20048;-84
2023/04/26 16:13:27;;;;;;;6.88;2.22;;;9.80;99.90;;;;;;6182518;23;20059;-86
2023/04/26 16:15:53;;;;;;;6.97;2.00;;;9.80;99.90;;;;;;6182668;23;20028;-86
2023/04/26 16:18:22;;;;;;;9.07;2.67;;;9.80;99.90;;;;;;6182418;23;20017;-86
2023/04/26 16:20:48;;;;;;;6.63;2.17;;;9.80;99.90;;;;;;6182548;23;20020;-85
2023/04/26 16:23:14;;;;;;;9.68;2.63;;;10.00;99.90;;;;;;6183037;23;20055;-86
2023/04/26 16:25:41;;;;;;;6.93;2.60;;;10.20;99.90;;;;;;6155506;23;20448;-86
2023/04/26 16:28:08;;;;;;;9.48;2.85;;;9.60;99.90;;;;;;6183195;23;20028;-86
2023/04/26 16:30:34;;;;;;;6.35;2.33;;;9.70;99.90;;;;;;6184298;23;20040;-86
2023/04/26 16:33:01;;;;;;;7.45;2.92;;;9.80;99.90;;;;;;6182855;23;20093;-86
2023/04/26 16:35:26;;;;;;;8.68;2.60;;;10.00;99.90;;;;;;6184244;23;20258;-86
2023/04/26 16:37:52;;;;;;;10.18;2.88;;;9.40;99.90;;;;;;6181647;23;20016;-86
2023/04/26 16:40:17;;;;;;;8.30;2.40;;;9.40;99.90;;;;;;6182440;23;20037;-86
2023/04/26 16:42:43;;;;;;;6.97;2.35;;;10.00;99.90;;;;;;6184265;23;20009;-86
2023/04/26 16:45:11;;;;;;;8.25;2.88;;;10.50;99.90;;;;;;6157471;23;20013;-86
2023/04/26 16:47:37;;;;;;;11.30;2.67;;;10.00;99.90;;;;;;6157411;23;20017;-86
2023/04/26 16:50:06;;;;;;;8.35;2.63;;;10.50;99.90;;;;;;6157682;23;20020;-85
2023/04/26 16:52:31;;;;;;;7.60;2.63;;;10.00;99.90;;;;;;6182346;23;20013;-86
2023/04/26 16:54:57;;;;;;;7.88;2.60;;;10.10;99.90;;;;;;6182475;23;20047;-86
2023/04/26 16:57:23;;;;;;;9.27;2.75;;;9.70;99.90;;;;;;6183087;23;20361;-86
2023/04/26 16:59:50;;;;;;;13.60;2.78;;;9.90;99.90;;;;;;6157535;23;20396;-86
2023/04/26 17:02:16;;;;;;;9.05;2.40;;;9.90;99.90;;;;;;6182183;23;20047;-86
2023/04/26 17:04:42;;;;;;;8.25;3.15;;;10.00;99.90;;;;;;6181442;23;20340;-86
2023/04/26 17:07:08;;;;;;;8.18;2.33;;;9.60;99.90;;;;;;6182519;23;20080;-86
2023/04/26 17:09:34;;;;;;;7.85;2.67;;;9.40;99.90;;;;;;6182166;23;20044;-86
2023/04/26 17:12:00;;;;;;;10.45;2.38;;;9.40;99.90;;;;;;6182035;23;20028;-86
2023/04/26 17:14:25;;;;;;;4.95;2.45;;;9.60;99.90;;;;;;6157262;23;20021;-86
2023/04/26 17:16:51;;;;;;;13.05;2.88;;;9.60;99.90;;;;;;6182321;23;20515;-86
2023/04/26 17:19:16;;;;;;;8.32;2.55;;;10.00;99.90;;;;;;6181909;23;20048;-86
2023/04/26 17:21:42;;;;;;;10.70;2.75;;;9.60;99.90;;;;;;6184053;23;20015;-87
2023/04/26 17:24:08;;;;;;;7.18;2.15;;;10.10;99.90;;;;;;6184010;23;20048;-85
2023/04/26 17:26:33;;;;;;;7.82;2.38;;;10.10;99.90;;;;;;6157066;23;20455;-86
2023/04/26 17:29:01;;;;;;;5.57;2.53;;;9.80;99.90;;;;;;6181988;23;20166;-86
2023/04/26 17:31:27;;;;;;;10.88;2.47;;;9.40;99.90;;;;;;6181854;23;20471;-86
2023/04/26 17:33:53;;;;;;;8.13;2.53;;;9.80;99.90;;;;;;6181130;23;20013;-86
2023/04/26 17:36:19;;;;;;;6.38;2.75;;;10.00;99.90;;;;;;6181804;23;20100;-86
2023/04/26 17:38:45;;;;;;;8.23;2.30;;;9.30;99.90;;;;;;6158276;23;20456;-85
2023/04/26 17:41:16;;;;;;;7.60;2.40;;;10.00;99.90;;;;;;6182623;23;20009;-85
2023/04/26 17:43:44;;;;;;;8.05;3.03;;;9.20;99.90;;;;;;6182731;23;20024;-85
2023/04/26 17:46:10;;;;;;;7.85;2.90;;;9.60;99.90;;;;;;6182492;23;20013;-85
2023/04/26 17:48:36;;;;;;;6.30;2.50;;;9.00;99.90;;;;;;6182087;23;20109;-85
2023/04/26 17:51:02;;;;;;;10.35;3.08;;;9.60;99.90;;;;;;6183622;23;20020;-85
2023/04/26 17:53:28;;;;;;;9.63;2.63;;;8.80;99.90;;;;;;6183062;23;20503;-85
2023/04/26 17:55:54;;;;;;;7.47;3.00;;;9.30;99.90;;;;;;6184168;23;20012;-85
2023/04/26 17:58:20;;;;;;;5.35;2.70;;;8.60;99.90;;;;;;6158030;23;20352;-85